Cleveland, Ohio
Current Conditions -  °F | °C
As of 3:53 PM on Saturday 25 Oct 2014 (Local Time) from KBKL Reporting Station
Clear Clear  
Wind Chill: 60°   Ceiling: Unl
Heat Index: 60°   Visibility: 8mi
Dew Point: 55°   Wind: 13mph
Humidity: 83%   Direction: 260°W
Pressure: 29.76"   Gusts: NA
Location:  41.5°N, 81.69°W
Report Text: KBKL 251953Z 26011KT 8SM CLR 16/13 A2976 RMK AO2 SLP076 T01560128
Loading
Personal Weather Stations






























Interactive Weather Map New forecast layout! Learn more

10-Day Weather Forecast

Advertisements
Track Severe Weather on mobile